Dickinson Theodore Roosevelt Regional Airport
KDIK : now visible

Aeroporto :











RITROVATECI SU...

 
LOGIN :

Iscrizione | Disclaimer

   EN    FR    IT 

 









Sommario :    VFR   VFR Marginale   IFR   IFR Intensivo   IFR Molto Intensivo
Visibilità : 
Base nubi : 
>= 8 km
>= 3000ft
5 / 8 km
1000 / 3000 ft
1500m / 5 km
500 / 1000 ft
800 / 1500m
200 / 500 ft
< 800m
< 200 ft
Simboli :   Temporali  Nebbia  Neve Forte  Precipitazioni Forti  Vento > 20 kt







- Altitudine del aeroporto : 2592 ft


KDIK - Dickinson Theodore Roosevelt Regional

ULTIMO METAR :
  • 222156Z AUTO VRB04KT 10SM CLR 18/M06 A3016 RMK AO2 SLP223 T01781061

METARs OBSOLETI :
  • 222056Z AUTO 02004KT 10SM CLR 17/M06 A3019 RMK AO2 SLP229 T01721061 58017
  • 221956Z AUTO 33005KT 10SM CLR 16/M06 A3021 RMK AO2 SLP238 T01611061

TAF KDIK
Valido dal 22 a 18 ore il 23 a 18 ore UTC


221721Z 2218/2318 35007KT P6SM FEW090 FEW250
FM222300 VRB05KT P6SM SKC
FM230500 18008KT P6SM SKC
FM231300 20009KT P6SM FEW200
FIR KZMP / America del Nord



MetMap, La meteo Aeronautica in un colpo d'occhio ! - Copyright ORBIFLY Dicembre 2007 - Disclaimer

ORBIFLY MET'MAP TEAM :

Programmazione e sviluppo : Alexandra Zaïnal
Concezione e sviluppo : Baudouin d'Aumeries
Co-Programmazione e sviluppo : Marc-Olivier Méhu
Supporto tecnico e logistico : Manuel Goepfert
Aiuto per la traduzione : Arnaldo La Scala

Contatto : metmap@orbifly.com




FONTI E CREDITI :

   NOAA       Earth
Advisory